sensor_id;sensor_type;location;lat;lon;timestamp;temperature;humidity
78972;DHT22;68373;44.714;37.756;2023-03-04T13:52:43;17.82;50.39
78972;DHT22;68373;44.714;37.756;2023-03-04T13:57:49;17.88;50.25
78972;DHT22;68373;44.714;37.756;2023-03-04T14:00:11;17.91;50.16
78972;DHT22;68373;44.714;37.756;2023-03-04T14:01:29;17.90;50.28
78972;DHT22;68373;44.714;37.756;2023-03-04T14:02:34;17.91;50.21
78972;DHT22;68373;44.714;37.756;2023-03-04T14:03:35;17.91;50.24
78972;DHT22;68373;44.714;37.756;2023-03-04T14:04:38;17.91;50.18
78972;DHT22;68373;44.714;37.756;2023-03-04T14:05:40;17.92;50.11
78972;DHT22;68373;44.714;37.756;2023-03-04T14:06:43;17.93;50.18
78972;DHT22;68373;44.714;37.756;2023-03-04T14:07:45;17.93;50.16
78972;DHT22;68373;44.714;37.756;2023-03-04T14:08:48;17.94;50.25
78972;DHT22;68373;44.714;37.756;2023-03-04T14:11:33;17.94;50.22
78972;DHT22;68373;44.714;37.756;2023-03-04T14:12:40;17.95;50.19
78972;DHT22;68373;44.714;37.756;2023-03-04T14:13:42;17.94;50.22
78972;DHT22;68373;44.714;37.756;2023-03-04T14:14:52;17.94;50.18
78972;DHT22;68373;44.714;37.756;2023-03-04T14:15:56;17.95;50.08
78972;DHT22;68373;44.714;37.756;2023-03-04T14:17:00;17.96;50.11
78972;DHT22;68373;44.714;37.756;2023-03-04T14:18:04;17.95;50.24
78972;DHT22;68373;44.714;37.756;2023-03-04T14:19:11;17.96;50.13
78972;DHT22;68373;44.714;37.756;2023-03-04T14:21:25;17.97;50.24
78972;DHT22;68373;44.714;37.756;2023-03-04T14:22:38;17.97;50.27
78972;DHT22;68373;44.714;37.756;2023-03-04T14:23:40;17.97;50.11
78972;DHT22;68373;44.714;37.756;2023-03-04T14:24:58;17.96;50.32
78972;DHT22;68373;44.714;37.756;2023-03-04T14:26:13;17.97;50.18
78972;DHT22;68373;44.714;37.756;2023-03-04T14:27:14;17.97;50.18
78972;DHT22;68373;44.714;37.756;2023-03-04T14:28:18;17.97;50.16
78972;DHT22;68373;44.714;37.756;2023-03-04T14:29:27;17.98;50.22
78972;DHT22;68373;44.714;37.756;2023-03-04T14:30:32;17.98;50.32
78972;DHT22;68373;44.714;37.756;2023-03-04T14:31:36;17.98;50.25
78972;DHT22;68373;44.714;37.756;2023-03-04T14:32:41;17.99;50.19
78972;DHT22;68373;44.714;37.756;2023-03-04T14:33:45;17.98;50.14
78972;DHT22;68373;44.714;37.756;2023-03-04T14:34:49;17.98;50.16
78972;DHT22;68373;44.714;37.756;2023-03-04T14:35:58;17.98;50.14
78972;DHT22;68373;44.714;37.756;2023-03-04T14:37:02;17.98;50.21
78972;DHT22;68373;44.714;37.756;2023-03-04T14:38:24;17.98;50.09
78972;DHT22;68373;44.714;37.756;2023-03-04T14:39:29;17.99;50.20
78972;DHT22;68373;44.714;37.756;2023-03-04T14:40:37;17.99;50.21
78972;DHT22;68373;44.714;37.756;2023-03-04T14:41:40;17.98;50.37
78972;DHT22;68373;44.714;37.756;2023-03-04T14:42:46;17.95;50.37
78972;DHT22;68373;44.714;37.756;2023-03-04T14:44:55;17.91;50.51
78972;DHT22;68373;44.714;37.756;2023-03-04T14:46:00;17.90;50.59
78972;DHT22;68373;44.714;37.756;2023-03-04T14:47:11;17.88;50.55
78972;DHT22;68373;44.714;37.756;2023-03-04T14:48:32;17.87;50.64
78972;DHT22;68373;44.714;37.756;2023-03-04T14:49:37;17.83;50.61
78972;DHT22;68373;44.714;37.756;2023-03-04T14:50:50;17.83;50.66
78972;DHT22;68373;44.714;37.756;2023-03-04T14:51:53;17.80;50.67
78972;DHT22;68373;44.714;37.756;2023-03-04T14:53:12;17.79;50.74
78972;DHT22;68373;44.714;37.756;2023-03-04T14:54:27;17.78;50.76
78972;DHT22;68373;44.714;37.756;2023-03-04T14:55:29;17.78;50.77
78972;DHT22;68373;44.714;37.756;2023-03-04T14:56:34;17.76;50.85
78972;DHT22;68373;44.714;37.756;2023-03-04T14:57:35;17.73;50.89
78972;DHT22;68373;44.714;37.756;2023-03-04T14:58:38;17.72;50.86
78972;DHT22;68373;44.714;37.756;2023-03-04T14:59:52;17.70;50.99
78972;DHT22;68373;44.714;37.756;2023-03-04T15:02:29;17.68;50.97
78972;DHT22;68373;44.714;37.756;2023-03-04T15:03:34;17.69;50.98
78972;DHT22;68373;44.714;37.756;2023-03-04T15:04:36;17.68;50.96
78972;DHT22;68373;44.714;37.756;2023-03-04T15:05:40;17.67;50.93
78972;DHT22;68373;44.714;37.756;2023-03-04T15:06:51;17.67;50.95
78972;DHT22;68373;44.714;37.756;2023-03-04T15:08:04;17.68;50.95
78972;DHT22;68373;44.714;37.756;2023-03-04T15:09:23;17.69;50.95
78972;DHT22;68373;44.714;37.756;2023-03-04T15:10:31;17.68;50.93
78972;DHT22;68373;44.714;37.756;2023-03-04T15:11:45;17.69;50.88
78972;DHT22;68373;44.714;37.756;2023-03-04T15:12:53;17.72;50.95
78972;DHT22;68373;44.714;37.756;2023-03-04T15:13:57;17.73;50.90
78972;DHT22;68373;44.714;37.756;2023-03-04T15:15:01;17.72;50.87
78972;DHT22;68373;44.714;37.756;2023-03-04T15:16:05;17.72;50.90
78972;DHT22;68373;44.714;37.756;2023-03-04T15:17:37;17.70;50.95
78972;DHT22;68373;44.714;37.756;2023-03-04T15:19:03;17.68;50.85
78972;DHT22;68373;44.714;37.756;2023-03-04T15:22:20;17.68;50.97
78972;DHT22;68373;44.714;37.756;2023-03-04T15:23:21;17.66;50.98
78972;DHT22;68373;44.714;37.756;2023-03-04T15:24:23;17.67;50.98
78972;DHT22;68373;44.714;37.756;2023-03-04T15:25:25;17.68;51.03
78972;DHT22;68373;44.714;37.756;2023-03-04T15:26:26;17.68;51.03
78972;DHT22;68373;44.714;37.756;2023-03-04T15:27:29;17.73;50.91
78972;DHT22;68373;44.714;37.756;2023-03-04T15:28:34;17.75;50.91
78972;DHT22;68373;44.714;37.756;2023-03-04T15:29:35;17.78;50.97
78972;DHT22;68373;44.714;37.756;2023-03-04T15:30:38;17.80;51.12
78972;DHT22;68373;44.714;37.756;2023-03-04T15:31:40;17.82;50.88
78972;DHT22;68373;44.714;37.756;2023-03-04T15:32:44;17.84;50.92
78972;DHT22;68373;44.714;37.756;2023-03-04T15:33:46;17.85;50.85
78972;DHT22;68373;44.714;37.756;2023-03-04T15:34:47;17.87;50.85
78972;DHT22;68373;44.714;37.756;2023-03-04T15:35:54;17.85;50.90
78972;DHT22;68373;44.714;37.756;2023-03-04T15:36:58;17.83;50.91
